createdAt,value
2023-03-03T00:07:44.898Z,-2.76
2023-03-03T00:17:52.620Z,-2.73
2023-03-03T00:28:03.455Z,-2.79
2023-03-03T00:38:16.252Z,-2.80
2023-03-03T00:48:27.232Z,-2.81
2023-03-03T00:58:34.474Z,-2.69
2023-03-03T01:08:42.341Z,-2.48
2023-03-03T01:18:49.598Z,-2.21
2023-03-03T01:28:56.770Z,-2.06
2023-03-03T01:39:04.157Z,-1.96
2023-03-03T01:49:14.105Z,-1.92
2023-03-03T01:59:19.932Z,-1.91
2023-03-03T02:09:26.620Z,-1.93
2023-03-03T02:19:34.107Z,-1.92
2023-03-03T02:29:41.322Z,-1.83
2023-03-03T02:39:47.449Z,-1.62
2023-03-03T02:49:54.427Z,-1.39
2023-03-03T03:00:01.452Z,-1.18
2023-03-03T03:10:08.239Z,-1.18
2023-03-03T03:20:16.115Z,-1.20
2023-03-03T03:30:23.127Z,-1.27
2023-03-03T03:40:30.716Z,-1.29
2023-03-03T03:50:37.342Z,-1.27
2023-03-03T04:00:42.080Z,-1.11
2023-03-03T04:10:49.415Z,-0.97
2023-03-03T04:20:56.503Z,-0.79
2023-03-03T04:31:03.598Z,-0.68
2023-03-03T04:41:11.244Z,-0.73
2023-03-03T04:51:18.862Z,-0.86
2023-03-03T05:01:26.233Z,-0.90
2023-03-03T05:11:32.851Z,-0.83
2023-03-03T05:21:39.326Z,-0.75
2023-03-03T05:31:46.585Z,-0.66
2023-03-03T05:41:53.771Z,-0.60
2023-03-03T05:52:01.397Z,-0.54
2023-03-03T06:02:08.035Z,-0.46
2023-03-03T06:12:15.441Z,-0.49
2023-03-03T06:22:21.807Z,-0.52
2023-03-03T06:32:29.093Z,-0.63
2023-03-03T06:42:36.737Z,-0.67
2023-03-03T06:52:43.810Z,-0.65
2023-03-03T07:02:55.353Z,-0.60
2023-03-03T07:13:18.418Z,-0.53
2023-03-03T07:23:28.190Z,-0.49
2023-03-03T07:33:36.460Z,-0.52
2023-03-03T07:43:49.362Z,-0.55
2023-03-03T07:53:56.216Z,-0.60
2023-03-03T08:04:07.572Z,-0.61
2023-03-03T08:14:18.012Z,-0.52
2023-03-03T08:24:22.926Z,-0.41
2023-03-03T08:34:30.056Z,-0.37
2023-03-03T08:44:35.280Z,-0.31
2023-03-03T08:54:42.650Z,-0.23
2023-03-03T09:04:49.888Z,-0.19
2023-03-03T09:25:19.467Z,0.05
2023-03-03T09:35:31.430Z,0.15
2023-03-03T09:45:54.934Z,0.24
2023-03-03T09:55:59.719Z,0.27
2023-03-03T10:06:13.527Z,0.32
2023-03-03T10:16:28.177Z,0.49
2023-03-03T10:26:45.798Z,0.76
2023-03-03T10:36:55.670Z,1.13
2023-03-03T10:47:24.895Z,1.19
2023-03-03T10:57:31.629Z,1.32
2023-03-03T11:07:37.040Z,1.43
2023-03-03T11:17:47.178Z,1.54
2023-03-03T11:28:01.653Z,1.73
2023-03-03T11:38:09.573Z,1.57
2023-03-03T11:48:16.128Z,1.50
2023-03-03T11:58:24.538Z,1.46
2023-03-03T12:08:35.128Z,1.35
2023-03-03T12:19:05.971Z,1.47
2023-03-03T12:29:13.128Z,1.57
2023-03-03T12:39:33.728Z,1.40
2023-03-03T12:49:44.121Z,1.37
2023-03-03T12:59:53.037Z,1.44
2023-03-03T13:10:07.738Z,1.53
2023-03-03T13:20:20.642Z,1.48
2023-03-03T13:30:34.628Z,1.38
2023-03-03T13:40:44.630Z,1.36
2023-03-03T13:50:55.991Z,1.39
2023-03-03T14:01:03.682Z,1.38
2023-03-03T14:11:18.350Z,1.28
2023-03-03T14:21:28.235Z,1.17
2023-03-03T14:31:33.661Z,1.22
2023-03-03T14:41:43.315Z,1.28
2023-03-03T14:51:49.586Z,1.21
2023-03-03T15:02:03.837Z,1.08
2023-03-03T15:12:35.461Z,0.93
2023-03-03T15:22:44.384Z,0.74
2023-03-03T15:32:54.559Z,0.60
2023-03-03T15:43:15.026Z,0.52
2023-03-03T15:53:26.085Z,0.50
2023-03-03T16:03:31.453Z,0.37
2023-03-03T16:13:42.376Z,0.21
2023-03-03T16:23:48.008Z,0.11
2023-03-03T16:33:53.539Z,0.17
2023-03-03T16:44:06.204Z,0.30
2023-03-03T16:54:17.172Z,0.32
2023-03-03T17:04:24.333Z,0.17
2023-03-03T17:14:34.960Z,0.06
2023-03-03T17:24:41.395Z,0.07
2023-03-03T17:34:49.614Z,0.10
2023-03-03T17:44:57.434Z,0.07
2023-03-03T17:55:22.686Z,0.05
2023-03-03T18:05:37.302Z,-0.06
2023-03-03T18:15:58.771Z,-0.14
2023-03-03T18:26:38.967Z,-0.16
2023-03-03T18:36:52.368Z,-0.14
2023-03-03T18:46:57.818Z,-0.10
2023-03-03T18:57:19.370Z,-0.04
2023-03-03T19:07:23.484Z,-0.04
2023-03-03T19:17:54.768Z,-0.12
2023-03-03T19:28:04.515Z,-0.15
2023-03-03T19:38:18.760Z,-0.12
2023-03-03T19:48:25.245Z,-0.09
2023-03-03T19:58:30.881Z,-0.08
2023-03-03T20:08:42.274Z,-0.12
2023-03-03T20:18:58.926Z,-0.22
2023-03-03T20:29:28.973Z,-0.20
2023-03-03T20:39:52.962Z,-0.11
2023-03-03T20:50:03.886Z,-0.00
2023-03-03T21:00:20.318Z,-0.07
2023-03-03T21:10:27.460Z,-0.16
2023-03-03T21:20:34.529Z,-0.27
2023-03-03T21:31:00.304Z,-0.26
2023-03-03T21:41:05.126Z,-0.30
2023-03-03T21:51:10.182Z,-0.39
2023-03-03T22:01:16.406Z,-0.51
2023-03-03T22:11:23.649Z,-0.53
2023-03-03T22:21:30.962Z,-0.50
2023-03-03T22:31:38.228Z,-0.48
2023-03-03T22:41:45.628Z,-0.49
2023-03-03T22:51:53.664Z,-0.52
2023-03-03T23:02:00.889Z,-0.55
2023-03-03T23:12:05.668Z,-0.60
2023-03-03T23:22:12.759Z,-0.56
2023-03-03T23:32:21.005Z,-0.46
2023-03-03T23:42:28.152Z,-0.40
2023-03-03T23:52:34.541Z,-0.34
